Hurlburt Field
KHRT : rendu visible

Aérodrome :











RETROUVEZ-NOUS SUR...

 
LOGIN :

S'inscrire | Disclaimer

   EN    FR    IT 

 









Légende :    VFR   VFR Marginal   IFR   IFR Intensif   IFR Très Intensif
Visi : 
Plafond : 
>= 8 km
>= 3000ft
5 à 8 km
1000 à 3000 ft
1500m à 5 km
500 à 1000 ft
800 à 1500m
200 à 500 ft
< 800m
< 200 ft
Symboles :   Orages  Brouillard  Fortes neiges  Fortes précipitations  Vent > 20 kt






- Altitude de l'aérodrome : 38 ft


KHRT - Hurlburt Field

DERNIER METAR :
  • 121125Z 34012G18KT 7SM RA SCT005 OVC050 14/19 A2997 RMK AO2A TSE25 BKN V OVC SLP151 $

METARs EXPIRÉS :
  • 121055Z 29009K 7SM -TSRA SCT005 OVC020 20/19 A2994 RMK AO2A TSB05E35B55 SLP140 P0022 T02020188 $
  • 121035Z 270010G15KT 6SM -RA SCT002 OVC048 20/19 A2993 RMK AO2A TSB05E35 SLP137 $
  • 121005Z 29010G21KT 7SM -TSRA SCT002 BKN020CB OVC050 21/19 A2993 RMK AO2A TSB05 CIG 002V024 PRESRR SLP137 $
  • 120958Z 25007KT 10SM -RA FEW020 SCT030 OVC050 23/19 A2991 RMK AO2A RAB57 SLP130 P0000 T02320188 $
  • 120855Z 21007KT 10SM OVC080 23/18 A2990 RMK AO2A SLP127 T02280184 $

TAF TAF KHRT
Valide du 12 à 10h jusqu'au 13 à 16h UTC


121030Z 1210/1316 31010G20KT 4800 SHRA SCT003 BKN020 OVC050 QNH3000INS
BECMG 1212/1213 34020G30KT 8000 -SHRA BKN020 BKN050 QNH3000INS
BECMG 1216/1217 36025G35KT 9999 NSW SCT020 BKN035 QNH3000INS
BECMG 1219/1220 36020G30KT 9999 SCT030 BKN250 QNH3000INS
BECMG 1223/1224 36012G20KT 9999 FEW030 BKN250 QNH3000INS
BECMG 1303/1304 36012G20KT 9999 SCT250 QNH3000INS TX20/1211Z TN01/1310Z



MET'MAP, la Météo Aéronautique d'un coup d'oeil ! - Copyright ORBIFLY Décembre 2007 - Disclaimer

ORBIFLY MET'MAP TEAM :

Programmation & Développement : Alexandra Zaïnal
Conception & Développement : Baudouin d'Aumeries
Co-Programmation & Développement : Marc-Olivier Méhu
Soutien technique & logistique : Manuel Goepfert

Contact : metmap@orbifly.com




SOURCES & CREDITS :

   NOAA       Earth
Advisory